createdAt,value
2018-11-10T00:02:00.347Z,2.20
2018-11-10T00:04:29.066Z,2.20
2018-11-10T00:06:57.992Z,2.20
2018-11-10T00:09:26.805Z,2.00
2018-11-10T00:11:56.029Z,1.90
2018-11-10T00:14:24.868Z,1.83
2018-11-10T00:16:53.272Z,1.90
2018-11-10T00:19:22.236Z,2.30
2018-11-10T00:21:50.649Z,1.80
2018-11-10T00:24:20.220Z,1.97
2018-11-10T00:26:48.980Z,1.50
2018-11-10T00:29:18.257Z,1.90
2018-11-10T00:31:46.980Z,1.83
2018-11-10T00:34:15.935Z,1.73
2018-11-10T00:36:44.786Z,1.47
2018-11-10T00:39:13.474Z,2.10
2018-11-10T00:41:42.412Z,2.17
2018-11-10T00:44:11.141Z,2.10
2018-11-10T00:46:39.575Z,1.67
2018-11-10T00:49:08.633Z,1.93
2018-11-10T00:51:37.108Z,1.80
2018-11-10T00:54:06.243Z,1.60
2018-11-10T00:56:35.033Z,1.93
2018-11-10T00:59:03.476Z,2.00
2018-11-10T01:01:32.302Z,1.90
2018-11-10T01:04:01.056Z,1.57
2018-11-10T01:06:29.820Z,2.33
2018-11-10T01:08:58.586Z,3.53
2018-11-10T01:11:27.303Z,4.87
2018-11-10T01:13:56.283Z,5.33
2018-11-10T01:16:25.026Z,6.13
2018-11-10T01:18:53.445Z,6.13
2018-11-10T01:21:21.849Z,5.73
2018-11-10T01:23:50.381Z,6.03
2018-11-10T01:26:19.039Z,6.53
2018-11-10T01:28:47.858Z,7.13
2018-11-10T01:31:16.581Z,7.30
2018-11-10T01:33:45.138Z,6.30
2018-11-10T01:36:13.516Z,7.17
2018-11-10T01:38:42.165Z,6.00
2018-11-10T01:41:10.979Z,6.77
2018-11-10T01:43:39.468Z,7.20
2018-11-10T01:46:08.181Z,8.83
2018-11-10T01:48:36.679Z,8.73
2018-11-10T01:51:05.816Z,7.53
2018-11-10T01:53:34.559Z,7.13
2018-11-10T01:56:03.072Z,6.43
2018-11-10T01:58:31.743Z,6.23
2018-11-10T02:01:00.174Z,4.30
2018-11-10T02:03:28.891Z,3.60
2018-11-10T02:05:57.681Z,4.10
2018-11-10T02:08:26.722Z,3.57
2018-11-10T02:10:55.511Z,3.50
2018-11-10T02:13:24.140Z,3.10
2018-11-10T02:15:52.811Z,3.07
2018-11-10T02:18:21.564Z,3.33
2018-11-10T02:20:50.317Z,3.23
2018-11-10T02:23:19.195Z,2.83
2018-11-10T02:25:48.332Z,2.53
2018-11-10T02:28:17.268Z,2.50
2018-11-10T02:30:46.266Z,2.40
2018-11-10T02:33:15.112Z,2.37
2018-11-10T02:35:43.832Z,2.60
2018-11-10T02:38:12.639Z,2.37
2018-11-10T02:40:41.036Z,3.03
2018-11-10T02:43:09.716Z,2.50
2018-11-10T02:45:38.605Z,3.17
2018-11-10T02:48:07.397Z,2.40
2018-11-10T02:50:36.576Z,2.47
2018-11-10T02:53:05.334Z,2.40
2018-11-10T02:55:34.031Z,2.10
2018-11-10T02:58:02.989Z,2.43
2018-11-10T03:00:31.871Z,2.47
2018-11-10T03:03:00.648Z,2.57
2018-11-10T03:05:29.426Z,3.20
2018-11-10T03:07:58.213Z,3.13
2018-11-10T03:10:26.640Z,2.97
2018-11-10T03:12:55.201Z,3.57
2018-11-10T03:15:23.618Z,3.37
2018-11-10T03:17:52.179Z,3.37
2018-11-10T03:20:20.873Z,2.63
2018-11-10T03:22:49.581Z,2.87
2018-11-10T03:25:18.036Z,2.80
2018-11-10T03:27:46.792Z,3.30
2018-11-10T03:30:15.469Z,2.70
2018-11-10T03:32:44.123Z,2.43
2018-11-10T03:35:12.863Z,2.60
2018-11-10T03:37:41.587Z,2.20
2018-11-10T03:40:11.462Z,2.00
2018-11-10T03:42:40.531Z,1.90
2018-11-10T03:45:10.850Z,2.10
2018-11-10T03:47:39.968Z,2.30
2018-11-10T03:50:09.391Z,2.50
2018-11-10T03:52:37.915Z,2.23
2018-11-10T03:55:07.244Z,2.43
2018-11-10T03:57:35.756Z,2.43
2018-11-10T04:00:04.824Z,2.30
2018-11-10T04:02:33.237Z,2.80
2018-11-10T04:05:01.744Z,3.03
2018-11-10T04:07:30.393Z,3.43
2018-11-10T04:09:59.187Z,3.40
2018-11-10T04:12:28.022Z,4.20
2018-11-10T04:14:56.647Z,3.20
2018-11-10T04:17:25.315Z,2.80
2018-11-10T04:19:53.949Z,3.20
2018-11-10T04:22:30.126Z,3.00
2018-11-10T04:24:59.021Z,2.87
2018-11-10T04:27:27.537Z,2.70
2018-11-10T04:29:56.257Z,2.90
2018-11-10T04:32:25.015Z,2.70
2018-11-10T04:34:53.834Z,2.57
2018-11-10T04:37:22.739Z,2.60
2018-11-10T04:39:51.174Z,2.30
2018-11-10T04:42:19.991Z,2.37
2018-11-10T04:44:49.049Z,2.50
2018-11-10T04:47:17.779Z,2.30
2018-11-10T04:49:46.682Z,2.47
2018-11-10T04:52:15.571Z,2.50
2018-11-10T04:54:44.218Z,2.80
2018-11-10T04:57:12.962Z,3.20
2018-11-10T04:59:41.881Z,2.83
2018-11-10T05:02:10.537Z,3.10
2018-11-10T05:04:39.288Z,3.53
2018-11-10T05:07:08.009Z,2.90
2018-11-10T05:09:36.655Z,3.37
2018-11-10T05:12:05.397Z,3.40
2018-11-10T05:14:34.272Z,3.40
2018-11-10T05:17:02.897Z,3.77
2018-11-10T05:19:31.711Z,3.27
2018-11-10T05:22:00.515Z,3.00
2018-11-10T05:24:29.267Z,3.80
2018-11-10T05:26:57.690Z,3.30
2018-11-10T05:29:26.365Z,5.10
2018-11-10T05:31:54.996Z,3.60
2018-11-10T05:34:23.643Z,3.83
2018-11-10T05:36:52.278Z,3.70
2018-11-10T05:39:21.026Z,3.97
2018-11-10T05:41:49.774Z,3.40
2018-11-10T05:44:18.521Z,3.97
2018-11-10T05:46:47.208Z,3.57
2018-11-10T05:49:16.101Z,4.20
2018-11-10T05:51:44.914Z,4.10
2018-11-10T05:54:13.657Z,3.80
2018-11-10T05:56:42.460Z,3.70
2018-11-10T05:59:11.155Z,4.17
2018-11-10T06:01:39.707Z,6.83
2018-11-10T06:04:08.424Z,4.10
2018-11-10T06:06:37.098Z,3.53
2018-11-10T06:09:08.721Z,3.87
2018-11-10T06:11:37.564Z,4.00
2018-11-10T06:14:06.291Z,4.50
2018-11-10T06:16:34.925Z,5.30
2018-11-10T06:19:03.605Z,5.03
2018-11-10T06:21:32.161Z,5.63
2018-11-10T06:24:00.878Z,5.10
2018-11-10T06:26:30.037Z,5.30
2018-11-10T06:28:58.868Z,5.30
2018-11-10T06:31:27.304Z,5.57
2018-11-10T06:33:56.147Z,6.77
2018-11-10T06:36:25.010Z,7.43
2018-11-10T06:38:53.692Z,7.10
2018-11-10T06:41:22.433Z,6.63
2018-11-10T06:43:50.945Z,6.93
2018-11-10T06:46:19.445Z,8.10
2018-11-10T06:48:48.181Z,8.90
2018-11-10T06:51:16.820Z,10.17
2018-11-10T06:53:45.399Z,9.73
2018-11-10T06:56:13.841Z,9.50
2018-11-10T06:58:42.362Z,9.67
2018-11-10T07:01:11.115Z,9.60
2018-11-10T07:03:40.007Z,11.13
2018-11-10T07:06:08.731Z,13.20
2018-11-10T07:08:37.321Z,13.77
2018-11-10T07:11:05.903Z,12.93
2018-11-10T07:13:34.361Z,12.47
2018-11-10T07:16:03.068Z,12.73
2018-11-10T07:18:31.821Z,15.73
2018-11-10T07:21:00.541Z,13.43
2018-11-10T07:23:29.337Z,23.40
2018-11-10T07:25:58.913Z,22.97
2018-11-10T07:28:27.757Z,18.07
2018-11-10T07:30:57.165Z,14.90
2018-11-10T07:33:26.859Z,13.70
2018-11-10T07:35:55.230Z,10.43
2018-11-10T07:38:24.063Z,11.73
2018-11-10T07:40:52.773Z,10.30
2018-11-10T07:43:21.588Z,12.13
2018-11-10T07:45:50.285Z,11.50
2018-11-10T07:48:18.733Z,11.40
2018-11-10T07:50:47.567Z,11.23
2018-11-10T07:53:16.482Z,15.13
2018-11-10T07:55:45.196Z,14.77
2018-11-10T07:58:14.086Z,15.53
2018-11-10T08:00:42.888Z,17.10
2018-11-10T08:03:11.514Z,16.00
2018-11-10T08:05:40.245Z,21.93
2018-11-10T08:08:09.053Z,21.50
2018-11-10T08:10:43.238Z,14.93
2018-11-10T08:13:11.693Z,13.70
2018-11-10T08:15:40.574Z,14.80
2018-11-10T08:18:09.229Z,13.60
2018-11-10T08:20:38.496Z,13.37
2018-11-10T08:23:07.275Z,12.83
2018-11-10T08:25:35.961Z,13.53
2018-11-10T08:28:04.837Z,13.10
2018-11-10T08:30:33.475Z,12.10
2018-11-10T08:33:02.241Z,12.67
2018-11-10T08:35:31.150Z,12.13
2018-11-10T08:37:59.546Z,12.83
2018-11-10T08:40:28.409Z,13.13
2018-11-10T08:42:56.921Z,12.47
2018-11-10T08:45:25.649Z,12.83
2018-11-10T08:47:54.591Z,12.77
2018-11-10T08:50:22.982Z,11.93
2018-11-10T08:52:52.265Z,12.80
2018-11-10T08:55:21.027Z,12.10
2018-11-10T08:57:49.738Z,12.53
2018-11-10T09:00:18.528Z,10.43
2018-11-10T09:02:47.301Z,11.13
2018-11-10T09:05:15.983Z,10.33
2018-11-10T09:07:44.826Z,10.30
2018-11-10T09:10:14.221Z,10.67
2018-11-10T09:12:42.769Z,10.47
2018-11-10T09:15:14.150Z,10.30
2018-11-10T09:17:42.854Z,8.63
2018-11-10T09:20:13.229Z,8.13
2018-11-10T09:22:42.433Z,10.80
2018-11-10T09:25:12.414Z,8.57
2018-11-10T09:27:40.821Z,9.53
2018-11-10T09:30:10.806Z,10.03
2018-11-10T09:32:39.905Z,10.50
2018-11-10T09:35:09.857Z,9.07
2018-11-10T09:37:38.551Z,10.47
2018-11-10T09:40:09.040Z,10.17
2018-11-10T09:42:38.091Z,9.70
2018-11-10T09:45:08.489Z,9.70
2018-11-10T09:47:37.450Z,9.50
2018-11-10T09:50:09.103Z,10.37
2018-11-10T09:52:37.543Z,12.10
2018-11-10T09:55:06.457Z,11.00
2018-11-10T09:57:35.018Z,13.10
2018-11-10T10:00:04.055Z,11.47
2018-11-10T10:02:33.186Z,11.93
2018-11-10T10:05:01.869Z,11.67
2018-11-10T10:07:30.730Z,12.63
2018-11-10T10:09:59.437Z,12.03
2018-11-10T10:12:35.449Z,10.73
2018-11-10T10:15:04.479Z,11.33
2018-11-10T10:17:33.124Z,11.00
2018-11-10T10:20:05.273Z,10.93
2018-11-10T10:22:33.706Z,10.67
2018-11-10T10:25:02.387Z,11.07
2018-11-10T10:27:31.433Z,15.73
2018-11-10T10:29:59.882Z,16.73
2018-11-10T10:32:29.264Z,17.10
2018-11-10T10:34:57.730Z,18.80
2018-11-10T10:37:26.477Z,17.33
2018-11-10T10:39:55.186Z,16.63
2018-11-10T10:42:23.994Z,18.20
2018-11-10T10:44:54.027Z,18.63
2018-11-10T10:47:22.465Z,18.13
2018-11-10T10:49:52.521Z,16.63
2018-11-10T10:52:22.015Z,18.80
2018-11-10T10:54:51.545Z,17.00
2018-11-10T10:57:20.192Z,16.20
2018-11-10T10:59:49.080Z,16.03
2018-11-10T11:02:23.147Z,17.27
2018-11-10T11:04:59.703Z,16.43
2018-11-10T11:07:28.442Z,15.37
2018-11-10T11:09:57.183Z,15.17
2018-11-10T11:12:25.977Z,16.53
2018-11-10T11:14:54.453Z,16.90
2018-11-10T11:17:23.034Z,16.33
2018-11-10T11:19:51.445Z,15.90
2018-11-10T11:22:20.187Z,15.63
2018-11-10T11:24:48.855Z,14.60
2018-11-10T11:27:17.614Z,14.70
2018-11-10T11:29:51.987Z,12.80
2018-11-10T11:32:20.797Z,11.77
2018-11-10T11:34:49.548Z,10.97
2018-11-10T11:37:18.261Z,10.30
2018-11-10T11:39:47.331Z,10.37
2018-11-10T11:42:16.190Z,9.40
2018-11-10T11:44:44.608Z,8.43
2018-11-10T11:47:13.475Z,8.83
2018-11-10T11:49:41.972Z,10.47
2018-11-10T11:52:10.743Z,8.33
2018-11-10T11:54:39.796Z,9.07
2018-11-10T11:57:08.230Z,8.40
2018-11-10T11:59:36.638Z,9.13
2018-11-10T12:02:05.803Z,8.80
2018-11-10T12:04:34.200Z,7.43
2018-11-10T12:07:02.836Z,7.13
2018-11-10T12:09:31.668Z,7.57
2018-11-10T12:12:00.486Z,7.83
2018-11-10T12:14:29.112Z,7.87
2018-11-10T12:16:58.105Z,8.07
2018-11-10T12:19:26.942Z,7.70
2018-11-10T12:21:57.760Z,7.27
2018-11-10T12:24:31.452Z,6.77
2018-11-10T12:27:00.528Z,6.63
2018-11-10T12:29:29.374Z,7.07
2018-11-10T12:31:57.863Z,7.20
2018-11-10T12:34:26.540Z,6.00
2018-11-10T12:36:55.449Z,6.57
2018-11-10T12:39:24.362Z,6.07
2018-11-10T12:41:53.240Z,6.10
2018-11-10T12:44:22.121Z,6.30
2018-11-10T12:46:50.876Z,5.90
2018-11-10T12:49:19.428Z,6.60
2018-11-10T12:51:48.185Z,9.33
2018-11-10T12:54:16.945Z,7.37
2018-11-10T12:56:45.879Z,5.63
2018-11-10T12:59:14.343Z,6.50
2018-11-10T13:01:43.574Z,5.87
2018-11-10T13:04:12.341Z,6.17
2018-11-10T13:06:40.823Z,6.17
2018-11-10T13:09:10.607Z,6.10
2018-11-10T13:11:39.426Z,6.20
2018-11-10T13:14:10.050Z,6.00
2018-11-10T13:16:39.083Z,7.60
2018-11-10T13:19:09.048Z,5.93
2018-11-10T13:21:38.051Z,7.33
2018-11-10T13:24:07.204Z,6.73
2018-11-10T13:26:38.097Z,6.70
2018-11-10T13:29:07.111Z,6.37
2018-11-10T13:31:38.812Z,6.67
2018-11-10T13:34:10.985Z,6.27
2018-11-10T13:36:40.356Z,6.47
2018-11-10T13:39:09.702Z,6.50
2018-11-10T13:41:38.744Z,7.53
2018-11-10T13:44:07.465Z,6.20
2018-11-10T13:46:35.947Z,6.53
2018-11-10T13:49:04.508Z,6.67
2018-11-10T13:51:34.856Z,6.83
2018-11-10T13:54:03.546Z,6.57
2018-11-10T13:56:32.411Z,6.37
2018-11-10T13:59:02.353Z,6.80
2018-11-10T14:01:31.304Z,7.00
2018-11-10T14:04:00.072Z,7.00
2018-11-10T14:06:28.805Z,7.77
2018-11-10T14:08:57.322Z,7.40
2018-11-10T14:11:32.780Z,7.83
2018-11-10T14:14:01.417Z,9.10
2018-11-10T14:16:30.320Z,8.93
2018-11-10T14:18:59.109Z,8.90
2018-11-10T14:21:28.002Z,9.97
2018-11-10T14:23:56.848Z,9.63
2018-11-10T14:26:25.735Z,10.70
2018-11-10T14:28:54.421Z,10.20
2018-11-10T14:31:23.204Z,10.07
2018-11-10T14:33:52.066Z,10.63
2018-11-10T14:36:20.747Z,11.70
2018-11-10T14:38:49.330Z,10.73
2018-11-10T14:41:18.099Z,11.17
2018-11-10T14:43:46.870Z,11.53
2018-11-10T14:46:15.567Z,11.97
2018-11-10T14:48:44.438Z,12.27
2018-11-10T14:51:13.351Z,12.77
2018-11-10T14:53:42.035Z,11.90
2018-11-10T14:56:10.686Z,12.40
2018-11-10T14:58:39.520Z,12.40
2018-11-10T15:01:08.282Z,13.30
2018-11-10T15:03:37.021Z,12.80
2018-11-10T15:06:05.966Z,13.33
2018-11-10T15:08:34.697Z,12.47
2018-11-10T15:11:03.635Z,13.23
2018-11-10T15:13:32.284Z,13.67
2018-11-10T15:16:01.404Z,14.20
2018-11-10T15:18:30.198Z,14.07
2018-11-10T15:20:58.899Z,15.03
2018-11-10T15:23:28.082Z,15.23
2018-11-10T15:25:56.770Z,15.70
2018-11-10T15:28:25.521Z,18.40
2018-11-10T15:30:54.094Z,17.60
2018-11-10T15:33:22.872Z,17.50
2018-11-10T15:35:51.607Z,19.00
2018-11-10T15:38:20.392Z,19.77
2018-11-10T15:40:49.288Z,20.13
2018-11-10T15:43:18.236Z,19.90
2018-11-10T15:45:47.049Z,20.50
2018-11-10T15:48:15.918Z,19.70
2018-11-10T15:50:44.594Z,19.77
2018-11-10T15:53:13.308Z,20.00
2018-11-10T15:55:42.129Z,19.30
2018-11-10T15:58:10.517Z,21.53
2018-11-10T16:00:39.387Z,20.63
2018-11-10T16:03:07.864Z,21.70
2018-11-10T16:05:36.769Z,21.90
2018-11-10T16:08:05.637Z,22.50
2018-11-10T16:10:34.539Z,24.73
2018-11-10T16:13:03.220Z,23.07
2018-11-10T16:15:31.892Z,22.17
2018-11-10T16:18:00.679Z,22.67
2018-11-10T16:20:29.155Z,22.00
2018-11-10T16:22:58.613Z,24.20
2018-11-10T16:25:27.481Z,23.73
2018-11-10T16:27:56.287Z,22.90
2018-11-10T16:30:25.143Z,24.33
2018-11-10T16:32:55.793Z,25.43
2018-11-10T16:35:24.423Z,31.17
2018-11-10T16:37:52.874Z,39.67
2018-11-10T16:40:21.697Z,48.43
2018-11-10T16:42:50.498Z,54.57
2018-11-10T16:45:20.003Z,67.03
2018-11-10T16:47:48.817Z,91.23
2018-11-10T16:50:17.710Z,81.60
2018-11-10T16:52:46.825Z,85.27
2018-11-10T16:55:15.500Z,83.00
2018-11-10T16:57:44.221Z,84.63
2018-11-10T17:00:15.149Z,81.70
2018-11-10T17:02:43.993Z,86.60
2018-11-10T17:05:13.679Z,74.60
2018-11-10T17:07:42.343Z,68.63
2018-11-10T17:10:13.520Z,52.70
2018-11-10T17:12:42.703Z,45.43
2018-11-10T17:15:11.584Z,38.73
2018-11-10T17:17:40.327Z,39.70
2018-11-10T17:20:11.257Z,39.73
2018-11-10T17:22:40.097Z,38.57
2018-11-10T17:25:10.660Z,40.57
2018-11-10T17:27:39.815Z,40.83
2018-11-10T17:30:11.384Z,36.20
2018-11-10T17:32:39.821Z,35.47
2018-11-10T17:35:09.229Z,33.77
2018-11-10T17:37:37.961Z,32.23
2018-11-10T17:40:07.937Z,27.57
2018-11-10T17:42:36.517Z,27.07
2018-11-10T17:45:05.762Z,23.90
2018-11-10T17:47:34.545Z,24.07
2018-11-10T17:50:03.265Z,22.43
2018-11-10T17:52:32.208Z,22.77
2018-11-10T17:55:00.830Z,21.37
2018-11-10T17:57:29.740Z,20.03
2018-11-10T18:00:05.588Z,19.63
2018-11-10T18:02:34.051Z,16.97
2018-11-10T18:05:02.745Z,17.30
2018-11-10T18:07:31.635Z,15.53
2018-11-10T18:10:00.415Z,15.77
2018-11-10T18:12:29.167Z,16.90
2018-11-10T18:14:57.819Z,16.93
2018-11-10T18:17:26.623Z,16.90
2018-11-10T18:19:55.269Z,17.70
2018-11-10T18:22:24.138Z,17.73
2018-11-10T18:24:52.927Z,17.87
2018-11-10T18:27:21.660Z,18.47
2018-11-10T18:29:50.308Z,18.77
2018-11-10T18:32:18.998Z,19.50
2018-11-10T18:34:47.803Z,22.30
2018-11-10T18:37:16.660Z,24.47
2018-11-10T18:39:47.853Z,28.17
2018-11-10T18:42:16.792Z,32.13
2018-11-10T18:44:45.198Z,27.23
2018-11-10T18:47:13.922Z,28.33
2018-11-10T18:49:42.659Z,25.07
2018-11-10T18:52:11.450Z,23.90
2018-11-10T18:54:39.929Z,24.97
2018-11-10T18:57:08.352Z,26.77
2018-11-10T18:59:37.790Z,26.57
2018-11-10T19:02:06.452Z,26.93
2018-11-10T19:04:35.612Z,28.50
2018-11-10T19:07:04.044Z,28.63
2018-11-10T19:09:32.857Z,28.97
2018-11-10T19:12:01.549Z,29.47
2018-11-10T19:14:30.422Z,28.33
2018-11-10T19:16:58.911Z,26.33
2018-11-10T19:19:27.649Z,25.23
2018-11-10T19:21:56.313Z,25.27
2018-11-10T19:24:24.988Z,24.97
2018-11-10T19:26:53.797Z,26.60
2018-11-10T19:29:22.394Z,28.63
2018-11-10T19:31:51.155Z,30.20
2018-11-10T19:34:19.859Z,46.80
2018-11-10T19:36:48.651Z,42.67
2018-11-10T19:39:17.384Z,39.00
2018-11-10T19:41:46.131Z,36.93
2018-11-10T19:44:14.915Z,37.63
2018-11-10T19:46:43.529Z,34.70
2018-11-10T19:49:12.373Z,32.93
2018-11-10T19:51:41.092Z,32.13
2018-11-10T19:54:09.627Z,26.00
2018-11-10T19:56:38.368Z,23.87
2018-11-10T19:59:07.902Z,21.63
2018-11-10T20:01:36.957Z,24.00
2018-11-10T20:04:05.603Z,21.70
2018-11-10T20:06:34.372Z,23.80
2018-11-10T20:09:03.754Z,25.33
2018-11-10T20:11:32.760Z,25.10
2018-11-10T20:14:02.977Z,28.53
2018-11-10T20:16:33.052Z,30.40
2018-11-10T20:19:03.199Z,27.10
2018-11-10T20:21:33.620Z,24.77
2018-11-10T20:24:03.917Z,43.17
2018-11-10T20:26:34.630Z,44.03
2018-11-10T20:29:05.902Z,35.37
2018-11-10T20:38:28.292Z,28.53
2018-11-10T20:40:59.509Z,29.20
2018-11-10T20:43:30.590Z,30.00
2018-11-10T20:46:03.516Z,31.47
2018-11-10T20:48:38.938Z,30.90
2018-11-10T20:51:09.584Z,33.20
2018-11-10T20:53:39.968Z,34.63
2018-11-10T20:56:13.086Z,31.00
2018-11-10T20:58:43.941Z,30.13
2018-11-10T21:01:13.253Z,32.90
2018-11-10T21:03:48.159Z,30.10
2018-11-10T21:06:17.137Z,30.13
2018-11-10T21:08:47.870Z,26.77
2018-11-10T21:11:16.639Z,28.00
2018-11-10T21:13:46.113Z,27.65
2018-11-10T21:16:14.670Z,29.48
2018-11-10T21:18:45.147Z,21.23
2018-11-10T21:21:14.452Z,20.77
2018-11-10T21:23:43.165Z,18.80
2018-11-10T21:26:12.121Z,19.23
2018-11-10T21:28:40.626Z,19.13
2018-11-10T21:31:09.588Z,19.57
2018-11-10T21:33:38.043Z,18.70
2018-11-10T21:36:06.758Z,18.37
2018-11-10T21:38:35.471Z,18.40
2018-11-10T21:41:03.957Z,18.23
2018-11-10T21:43:32.813Z,17.87
2018-11-10T21:46:01.204Z,16.63
2018-11-10T21:48:29.624Z,15.87
2018-11-10T21:50:58.383Z,15.63
2018-11-10T21:53:27.115Z,15.77
2018-11-10T21:55:55.821Z,16.23
2018-11-10T21:58:24.520Z,15.73
2018-11-10T22:00:53.347Z,16.10
2018-11-10T22:03:22.063Z,16.53
2018-11-10T22:05:57.828Z,17.57
2018-11-10T22:08:26.296Z,18.17
2018-11-10T22:10:54.872Z,18.50
2018-11-10T22:13:23.561Z,20.53
2018-11-10T22:15:52.292Z,21.07
2018-11-10T22:18:20.857Z,22.70
2018-11-10T22:20:49.757Z,21.17
2018-11-10T22:23:18.400Z,22.27
2018-11-10T22:25:47.250Z,19.70
2018-11-10T22:28:16.030Z,19.17
2018-11-10T22:30:44.930Z,21.80
2018-11-10T22:33:14.558Z,20.60
2018-11-10T22:35:43.488Z,21.77
2018-11-10T22:38:12.360Z,17.87
2018-11-10T22:40:41.085Z,19.83
2018-11-10T22:43:09.965Z,21.57
2018-11-10T22:45:38.746Z,18.03
2018-11-10T22:48:07.948Z,17.07
2018-11-10T22:50:36.598Z,17.40
2018-11-10T22:53:05.601Z,16.20
2018-11-10T22:55:34.228Z,16.07
2018-11-10T22:58:02.971Z,17.10
2018-11-10T23:00:31.999Z,20.83
2018-11-10T23:03:01.380Z,18.87
2018-11-10T23:05:30.180Z,18.10
2018-11-10T23:07:59.071Z,18.67
2018-11-10T23:10:27.852Z,18.47
2018-11-10T23:12:56.539Z,20.00
2018-11-10T23:15:25.386Z,18.23
2018-11-10T23:17:54.349Z,17.83
2018-11-10T23:20:23.076Z,18.77
2018-11-10T23:22:51.938Z,20.00
2018-11-10T23:25:20.565Z,18.30
2018-11-10T23:27:49.249Z,18.43
2018-11-10T23:30:19.140Z,19.27
2018-11-10T23:32:47.983Z,18.23
2018-11-10T23:35:16.752Z,18.00
2018-11-10T23:37:45.586Z,19.23
2018-11-10T23:40:15.072Z,18.50
2018-11-10T23:42:43.999Z,19.37
2018-11-10T23:45:13.323Z,19.50
2018-11-10T23:47:41.828Z,20.50
2018-11-10T23:50:13.403Z,20.43
2018-11-10T23:52:42.195Z,20.03
2018-11-10T23:55:11.591Z,19.07
2018-11-10T23:57:40.328Z,19.03
